Time;durP1;ratioP1;P1;durP2;ratioP2;P2;SDS_P1;SDS_P2;PMS_P1;PMS_P2;Temp;Humidity;BMP_temperature;BMP_pressure;BME280_temperature;BME280_humidity;BME280_pressure;Samples;Min_cycle;Max_cycle;Signal;HPM_P1;HPM_P2
2023/04/01 00:01:34;;;;;;;4.47;0.98;;;;;;;8.78;99.54;99043.75;5013698;28;20058;-85
2023/04/01 00:04:01;;;;;;;6.35;0.98;;;;;;;8.77;99.85;99037.75;5008109;28;20488;-86
2023/04/01 00:06:27;;;;;;;3.83;1.02;;;;;;;8.80;99.74;99047.13;5007684;28;20431;-86
2023/04/01 00:08:53;;;;;;;3.95;0.90;;;;;;;8.79;100.00;99045.44;5013284;28;20061;-86
2023/04/01 00:11:18;;;;;;;2.47;0.85;;;;;;;8.82;99.72;99050.50;5010124;28;20457;-82
2023/04/01 00:13:43;;;;;;;3.58;0.90;;;;;;;8.80;99.98;99041.94;5011706;28;20063;-84
2023/04/01 00:16:10;;;;;;;2.55;0.80;;;;;;;8.77;100.00;99055.91;5012300;28;20056;-81
2023/04/01 00:18:35;;;;;;;2.67;0.73;;;;;;;8.76;100.00;99051.63;5012507;28;20025;-81
2023/04/01 00:21:01;;;;;;;4.43;1.00;;;;;;;8.75;100.00;99055.13;5011642;28;20030;-86
2023/04/01 00:23:26;;;;;;;3.67;1.00;;;;;;;8.74;100.00;99053.44;5010912;28;20084;-81
2023/04/01 00:25:51;;;;;;;1.95;0.70;;;;;;;8.73;100.00;99056.09;5005675;28;20097;-85
2023/04/01 00:28:19;;;;;;;5.85;1.10;;;;;;;8.75;100.00;99049.09;5010017;28;20052;-80
2023/04/01 00:30:45;;;;;;;2.70;0.80;;;;;;;8.75;100.00;99049.09;5008550;28;20062;-81
2023/04/01 00:33:11;;;;;;;3.13;0.90;;;;;;;8.75;100.00;99049.09;5010077;28;20072;-85
2023/04/01 00:35:37;;;;;;;3.95;1.00;;;;;;;8.73;100.00;99053.50;5012040;28;20036;-82
2023/04/01 00:38:03;;;;;;;5.18;1.10;;;;;;;8.73;100.00;99054.34;5013291;28;20030;-82
2023/04/01 00:40:30;;;;;;;3.80;1.17;;;;;;;8.74;100.00;99058.63;5010547;28;20108;-82
2023/04/01 00:42:56;;;;;;;3.10;1.10;;;;;;;8.71;100.00;99052.75;5010531;28;20052;-83
2023/04/01 00:45:32;;;;;;;2.35;1.20;;;;;;;8.72;100.00;99052.66;5012117;28;20033;-81
2023/04/01 00:48:01;;;;;;;2.65;1.20;;;;;;;8.74;100.00;99060.38;5011634;28;20369;-83
2023/04/01 00:50:28;;;;;;;3.45;1.13;;;;;;;8.72;100.00;99065.63;5014785;28;20076;-83
2023/04/01 00:52:54;;;;;;;2.80;1.10;;;;;;;8.73;100.00;99062.13;5008726;28;20030;-82
2023/04/01 00:55:23;;;;;;;3.13;1.30;;;;;;;8.73;100.00;99061.28;5013719;28;20033;-83
2023/04/01 00:57:50;;;;;;;3.47;1.50;;;;;;;8.71;100.00;99063.94;5014317;28;20029;-82
2023/04/01 01:00:17;;;;;;;3.30;1.45;;;;;;;8.73;100.00;99076.84;5009990;28;20077;-84
2023/04/01 01:02:45;;;;;;;2.13;1.40;;;;;;;8.72;100.00;99075.16;5009688;28;20026;-85
2023/04/01 01:05:15;;;;;;;3.92;1.38;;;;;;;8.75;100.00;99077.59;5009143;28;20033;-82
2023/04/01 01:08:15;;;;;;;3.60;1.52;;;;;;;8.74;100.00;99074.19;5009032;28;20030;-85
2023/04/01 01:10:47;;;;;;;2.78;1.45;;;;;;;8.73;100.00;99072.50;5010992;28;20149;-81
2023/04/01 01:13:15;;;;;;;;;;;;;;;8.75;100.00;99072.41;5009009;28;20477;-82
2023/04/01 01:15:48;;;;;;;1.90;1.50;;;;;;;8.73;100.00;99077.69;5010810;28;20394;-82
2023/04/01 01:18:32;;;;;;;2.45;1.50;;;;;;;8.75;100.00;99080.19;5007123;28;20125;-79
2023/04/01 01:21:17;;;;;;;2.83;1.70;;;;;;;8.75;100.00;99085.38;5006444;28;20033;-79
2023/04/01 01:24:07;;;;;;;2.95;1.70;;;;;;;8.73;100.00;99084.63;5009659;28;20157;-79
2023/04/01 01:26:58;;;;;;;3.25;1.50;;;;;;;8.75;100.00;99080.19;5009045;28;20500;-79
2023/04/01 01:30:00;;;;;;;3.63;2.28;;;;;;;8.75;100.00;99090.56;5007137;28;20491;-79
2023/04/01 01:33:05;;;;;;;5.07;2.10;;;;;;;8.73;100.00;99077.69;5007437;28;20053;-79
2023/04/01 01:35:38;;;;;;;3.33;2.10;;;;;;;8.73;100.00;99087.19;5008225;28;20026;-79
2023/04/01 01:38:08;;;;;;;3.50;2.30;;;;;;;8.73;100.00;99082.88;5008258;28;20022;-79
2023/04/01 01:40:35;;;;;;;2.88;2.17;;;;;;;8.72;100.00;99085.53;5002246;28;20028;-79
2023/04/01 01:43:08;;;;;;;3.75;2.30;;;;;;;8.72;100.00;99098.47;5008301;28;20025;-79
2023/04/01 01:45:38;;;;;;;3.45;2.28;;;;;;;8.73;100.00;99097.56;5009910;28;20050;-79
2023/04/01 01:48:06;;;;;;;3.53;2.22;;;;;;;8.71;100.00;99089.88;5007757;28;20481;-79
2023/04/01 01:50:32;;;;;;;2.95;2.40;;;;;;;8.72;100.00;99104.53;5008183;28;20366;-80
2023/04/01 01:53:06;;;;;;;3.92;2.67;;;;;;;8.72;100.00;99107.13;5006789;28;20034;-79
2023/04/01 01:55:40;;;;;;;3.80;2.50;;;;;;;8.70;100.00;99105.53;5008315;28;20034;-79
2023/04/01 01:58:26;;;;;;;3.47;2.50;;;;;;;8.71;100.00;99104.59;5007928;28;20033;-79
2023/04/01 02:01:00;;;;;;;3.15;2.55;;;;;;;8.71;100.00;99109.78;5004434;28;20025;-79
2023/04/01 02:03:29;;;;;;;3.20;2.40;;;;;;;8.71;100.00;99109.78;5004914;28;20046;-79
2023/04/01 02:05:58;;;;;;;4.68;3.03;;;;;;;8.70;100.00;99108.13;5007792;28;20029;-79
2023/04/01 02:08:46;;;;;;;4.88;3.20;;;;;;;8.69;100.00;99106.44;5010380;28;20029;-79
2023/04/01 02:11:16;;;;;;;4.90;3.50;;;;;;;8.70;100.00;99108.13;5006338;28;20484;-79
2023/04/01 02:13:53;;;;;;;5.60;4.10;;;;;;;8.70;100.00;99106.34;5006711;28;20038;-79
2023/04/01 02:16:29;;;;;;;7.10;4.70;;;;;;;8.70;100.00;99118.47;5008339;28;20105;-79
2023/04/01 02:18:56;;;;;;;5.38;4.20;;;;;;;8.68;100.00;99115.13;5008862;28;20481;-79
2023/04/01 02:21:24;;;;;;;6.03;4.35;;;;;;;8.69;100.00;99115.03;5005083;28;20022;-79
2023/04/01 02:23:52;;;;;;;6.85;4.38;;;;;;;8.70;100.00;99119.31;5004861;28;20030;-79
2023/04/01 02:26:17;;;;;;;5.80;4.03;;;;;;;8.70;100.00;99124.50;5007141;28;20388;-79
2023/04/01 02:28:45;;;;;;;5.30;3.78;;;;;;;8.68;100.00;99125.47;5008140;28;20022;-79
2023/04/01 02:31:11;;;;;;;5.10;3.80;;;;;;;8.68;100.00;99125.47;5004053;28;20428;-79
2023/04/01 02:33:38;;;;;;;5.35;3.65;;;;;;;8.64;100.00;99135.13;5009617;28;20021;-79
2023/04/01 02:36:05;;;;;;;4.35;3.30;;;;;;;8.63;100.00;99131.72;5010810;28;20473;-80
2023/04/01 02:38:30;;;;;;;6.60;3.53;;;;;;;8.63;100.00;99138.63;5009569;28;20489;-79
2023/04/01 02:40:59;;;;;;;5.30;3.55;;;;;;;8.63;100.00;99128.25;5006754;28;20025;-79
2023/04/01 02:43:24;;;;;;;5.35;3.40;;;;;;;8.61;100.00;99130.94;5006972;28;20228;-79
2023/04/01 02:45:49;;;;;;;4.97;3.50;;;;;;;8.61;100.00;99127.53;5009224;28;20025;-79
2023/04/01 02:48:15;;;;;;;5.82;3.95;;;;;;;8.60;100.00;99137.03;5006654;28;20022;-80
2023/04/01 02:50:40;;;;;;;5.63;4.20;;;;;;;8.60;100.00;99131.84;5009819;28;20041;-78
2023/04/01 02:53:06;;;;;;;6.97;4.43;;;;;;;8.59;100.00;99145.72;5008490;28;20042;-79
2023/04/01 02:55:32;;;;;;;5.78;4.10;;;;;;;8.59;100.00;99140.53;5009675;28;20026;-79
2023/04/01 02:57:57;;;;;;;7.20;4.50;;;;;;;8.58;100.00;99144.03;5010101;28;20053;-80
2023/04/01 03:00:23;;;;;;;8.25;5.03;;;;;;;8.60;100.00;99143.97;5003981;28;20440;-79
2023/04/01 03:02:48;;;;;;;8.27;5.72;;;;;;;8.59;100.00;99145.72;5003956;28;20519;-79
2023/04/01 03:05:13;;;;;;;8.48;5.32;;;;;;;8.59;100.00;99152.66;5002449;28;20480;-79
2023/04/01 03:07:39;;;;;;;7.95;5.40;;;;;;;8.59;100.00;99145.72;5007740;28;20104;-80
2023/04/01 03:10:06;;;;;;;10.57;5.10;;;;;;;8.58;100.00;99149.22;5006733;28;20018;-79
2023/04/01 03:12:31;;;;;;;8.18;5.47;;;;;;;8.59;100.00;99150.06;5007504;28;20046;-80
2023/04/01 03:14:56;;;;;;;12.50;5.80;;;;;;;8.58;100.00;99156.16;5006865;28;20036;-80
2023/04/01 03:17:21;;;;;;;8.68;5.45;;;;;;;8.57;100.00;99157.91;5009581;28;20040;-79
2023/04/01 03:19:47;;;;;;;10.63;6.28;;;;;;;8.55;100.00;99151.94;5009863;28;20025;-79
2023/04/01 03:22:12;;;;;;;8.40;5.72;;;;;;;8.55;100.00;99159.72;5008966;28;20096;-79
2023/04/01 03:24:37;;;;;;;10.13;5.75;;;;;;;8.55;100.00;99159.72;5010659;28;20033;-79
2023/04/01 03:27:03;;;;;;;9.38;5.95;;;;;;;8.55;100.00;99151.94;5013086;28;20029;-79
2023/04/01 03:29:28;;;;;;;10.30;6.82;;;;;;;8.53;100.00;99166.75;5007174;28;20049;-79
2023/04/01 03:31:53;;;;;;;10.55;6.57;;;;;;;8.52;100.00;99161.59;5011942;28;20026;-79
2023/04/01 03:34:18;;;;;;;11.70;6.75;;;;;;;8.51;100.00;99160.78;5012651;28;20021;-80
2023/04/01 03:36:44;;;;;;;11.77;6.10;;;;;;;8.50;100.00;99159.09;5009244;28;20038;-79
2023/04/01 03:39:09;;;;;;;10.13;5.82;;;;;;;8.51;100.00;99165.97;5012259;28;20464;-79
2023/04/01 03:41:37;;;;;;;7.93;5.75;;;;;;;8.51;100.00;99165.97;5011482;28;20026;-80
2023/04/01 03:44:02;;;;;;;8.75;5.60;;;;;;;8.49;100.00;99165.19;5011843;28;20093;-80
2023/04/01 03:46:27;;;;;;;8.75;5.72;;;;;;;8.48;100.00;99160.91;5011573;28;20117;-79
2023/04/01 03:48:52;;;;;;;8.63;5.55;;;;;;;8.48;100.00;99171.28;5009537;28;20053;-79
2023/04/01 03:51:18;;;;;;;10.15;5.40;;;;;;;8.46;100.00;99170.47;5011395;28;20393;-80
2023/04/01 03:53:43;;;;;;;9.07;5.55;;;;;;;8.46;100.00;99171.31;5011281;28;20061;-79
2023/04/01 03:56:08;;;;;;;8.45;5.30;;;;;;;8.47;100.00;99182.53;5012620;28;20037;-77
2023/04/01 03:58:35;;;;;;;7.40;5.03;;;;;;;8.44;100.00;99175.72;5011803;28;20496;-79
2023/04/01 04:01:00;;;;;;;7.10;4.75;;;;;;;8.44;100.00;99175.72;5011443;28;20103;-78
2023/04/01 04:03:26;;;;;;;6.80;4.78;;;;;;;8.42;100.00;99177.53;5013057;28;20137;-79
2023/04/01 04:05:51;;;;;;;8.25;4.93;;;;;;;8.40;100.00;99174.19;5012456;28;20365;-80
2023/04/01 04:08:17;;;;;;;5.55;4.18;;;;;;;8.42;100.00;99185.31;5011767;28;20021;-80
2023/04/01 04:10:42;;;;;;;6.05;4.03;;;;;;;8.40;100.00;99184.53;5011227;28;20037;-80
2023/04/01 04:13:08;;;;;;;6.13;3.85;;;;;;;8.41;100.00;99190.56;5009330;28;20053;-80
2023/04/01 04:15:33;;;;;;;6.45;4.18;;;;;;;8.42;100.00;99187.06;5006960;28;20018;-80
2023/04/01 04:17:58;;;;;;;5.57;3.83;;;;;;;8.41;100.00;99195.72;5012501;28;20523;-80
2023/04/01 04:20:24;;;;;;;4.80;3.30;;;;;;;8.43;100.00;99199.09;5013622;28;20026;-79
2023/04/01 04:22:49;;;;;;;6.45;4.00;;;;;;;8.42;100.00;99194.84;5010576;28;20018;-80
2023/04/01 04:25:14;;;;;;;5.47;3.30;;;;;;;8.40;100.00;99196.63;5011760;28;20075;-80
2023/04/01 04:27:40;;;;;;;4.00;2.95;;;;;;;8.39;100.00;99201.00;5008784;28;20480;-80
2023/04/01 04:30:07;;;;;;;5.18;3.42;;;;;;;8.39;100.00;99197.53;5010043;28;20026;-79
2023/04/01 04:32:32;;;;;;;4.70;3.10;;;;;;;8.38;100.00;99206.22;5010039;28;20393;-80
2023/04/01 04:34:57;;;;;;;4.28;2.92;;;;;;;8.37;100.00;99204.56;5010611;28;20028;-80
2023/04/01 04:37:23;;;;;;;5.00;2.80;;;;;;;8.38;100.00;99208.81;5011711;28;20040;-78
2023/04/01 04:39:48;;;;;;;4.30;2.83;;;;;;;8.37;100.00;99209.75;5012517;28;20022;-80
2023/04/01 04:42:13;;;;;;;4.22;2.78;;;;;;;8.35;100.00;99208.06;5012313;28;20022;-80
2023/04/01 04:44:39;;;;;;;3.92;2.75;;;;;;;8.34;100.00;99216.75;5007943;28;20137;-80
2023/04/01 04:47:04;;;;;;;4.85;3.10;;;;;;;8.32;100.00;99213.38;5010013;28;20029;-80
2023/04/01 04:49:30;;;;;;;5.25;3.00;;;;;;;8.31;100.00;99210.84;5011405;28;20053;-80
2023/04/01 04:51:55;;;;;;;5.15;3.05;;;;;;;8.30;100.00;99217.78;5009468;28;20824;-80
2023/04/01 04:54:21;;;;;;;5.43;3.28;;;;;;;8.29;100.00;99217.81;5009987;28;20100;-80
2023/04/01 04:56:46;;;;;;;3.92;2.80;;;;;;;8.28;100.00;99214.41;5010083;28;20369;-80
2023/04/01 04:59:12;;;;;;;3.55;2.45;;;;;;;8.31;100.00;99223.78;5010157;28;20029;-81
2023/04/01 05:01:38;;;;;;;4.63;2.80;;;;;;;8.30;100.00;99229.88;5009802;28;20022;-81
2023/04/01 05:04:03;;;;;;;4.60;2.78;;;;;;;8.28;100.00;99227.38;5009230;28;20088;-81
2023/04/01 05:06:29;;;;;;;4.28;2.53;;;;;;;8.28;100.00;99221.34;5011262;28;20413;-81
2023/04/01 05:08:55;;;;;;;3.85;2.30;;;;;;;8.27;100.00;99236.03;5009395;28;20025;-81
2023/04/01 05:11:20;;;;;;;3.92;2.40;;;;;;;8.26;100.00;99242.13;5007460;28;20036;-80
2023/04/01 05:13:47;;;;;;;3.42;2.33;;;;;;;8.26;100.00;99239.53;5006962;28;20053;-80
2023/04/01 05:16:15;;;;;;;4.07;2.80;;;;;;;8.27;100.00;99243.81;5008271;28;20034;-80
2023/04/01 05:18:41;;;;;;;4.07;2.70;;;;;;;8.26;100.00;99249.91;5007431;28;20096;-80
2023/04/01 05:21:09;;;;;;;3.85;2.45;;;;;;;8.27;100.00;99250.75;5005762;28;20476;-79
2023/04/01 05:23:34;;;;;;;4.10;2.72;;;;;;;8.25;100.00;99258.56;5006622;28;20088;-80
2023/04/01 05:26:08;;;;;;;3.58;2.70;;;;;;;8.25;100.00;99255.97;5007180;28;20073;-80
2023/04/01 05:28:33;;;;;;;4.68;2.88;;;;;;;8.25;100.00;99261.16;5009414;28;20026;-80
2023/04/01 05:31:00;;;;;;;3.75;2.67;;;;;;;8.24;100.00;99262.06;5007586;28;20374;-80
2023/04/01 05:33:26;;;;;;;3.75;2.97;;;;;;;8.25;100.00;99270.69;5008072;28;20084;-80
2023/04/01 05:35:53;;;;;;;5.38;2.90;;;;;;;8.25;100.00;99268.94;5009501;28;20025;-80
2023/04/01 05:38:18;;;;;;;3.45;2.65;;;;;;;8.23;100.00;99278.53;5006030;28;20060;-80
2023/04/01 05:40:43;;;;;;;5.78;3.13;;;;;;;8.24;100.00;99281.97;5006281;28;20097;-80
2023/04/01 05:43:09;;;;;;;4.95;3.17;;;;;;;8.23;100.00;99281.09;5003123;28;20041;-80
2023/04/01 05:45:34;;;;;;;5.28;2.78;;;;;;;8.23;100.00;99286.28;5009807;28;20058;-80
2023/04/01 05:47:59;;;;;;;3.95;2.95;;;;;;;8.23;100.00;99286.28;5006348;28;20526;-80
2023/04/01 05:50:25;;;;;;;4.18;2.88;;;;;;;8.24;100.00;99292.34;5008333;28;20041;-80
2023/04/01 05:52:50;;;;;;;4.13;2.88;;;;;;;8.25;100.00;99294.03;5007674;28;20030;-80
2023/04/01 05:55:15;;;;;;;4.32;2.97;;;;;;;8.24;100.00;99298.34;5006199;28;20037;-80
2023/04/01 05:57:41;;;;;;;4.07;2.83;;;;;;;8.24;100.00;99298.34;5005736;28;20030;-80
2023/04/01 06:00:06;;;;;;;3.97;2.90;;;;;;;8.26;100.00;99301.72;5010002;28;20112;-80
2023/04/01 06:02:32;;;;;;;4.47;3.10;;;;;;;8.29;100.00;99300.75;5005494;28;20068;-80
2023/04/01 06:05:28;;;;;;;3.80;2.90;;;;;;;8.29;100.00;99309.38;5008090;28;20161;-80
2023/04/01 06:08:00;;;;;;;4.60;3.40;;;;;;;8.30;100.00;99308.47;5006357;28;20034;-80
2023/04/01 06:11:01;;;;;;;4.25;3.17;;;;;;;8.31;100.00;99315.34;5006892;28;20069;-80
2023/04/01 06:14:00;;;;;;;5.28;3.78;;;;;;;8.31;100.00;99320.50;5004287;28;20048;-80
2023/04/01 06:16:52;;;;;;;6.78;4.10;;;;;;;8.32;100.00;99322.19;5005853;28;20025;-80
2023/04/01 06:19:44;;;;;;;5.22;4.00;;;;;;;8.35;100.00;99332.44;5006256;28;20033;-80
2023/04/01 06:22:22;;;;;;;7.18;4.50;;;;;;;8.38;100.00;99328.03;5005306;28;20041;-80
2023/04/01 06:25:13;;;;;;;7.13;5.03;;;;;;;8.39;100.00;99340.94;5007933;28;20030;-80
2023/04/01 06:28:00;;;;;;;8.18;5.07;;;;;;;8.39;100.00;99343.53;5004198;28;20401;-80
2023/04/01 06:30:33;;;;;;;7.55;5.53;;;;;;;8.42;100.00;99342.53;5008915;28;20022;-80
2023/04/01 06:33:31;;;;;;;9.13;5.45;;;;;;;8.42;100.00;99352.91;5011043;28;20029;-80
2023/04/01 06:36:08;;;;;;;7.68;5.00;;;;;;;8.46;100.00;99349.28;5008860;28;20022;-80
2023/04/01 06:39:07;;;;;;;8.18;5.18;;;;;;;8.46;100.00;99360.50;5010248;28;20076;-80
2023/04/01 06:41:40;;;;;;;7.63;5.40;;;;;;;8.48;100.00;99353.53;5006743;28;20095;-80
2023/04/01 06:44:25;;;;;;;7.28;5.03;;;;;;;8.48;100.00;99360.47;5006067;28;20029;-80
2023/04/01 06:47:05;;;;;;;6.97;5.03;;;;;;;8.50;100.00;99363.84;5009256;28;20274;-80
2023/04/01 06:49:44;;;;;;;8.68;6.20;;;;;;;8.50;100.00;99364.69;5010565;28;20357;-80
2023/04/01 06:52:22;;;;;;;7.65;5.35;;;;;;;8.51;100.00;99362.94;5003701;28;20057;-81
2023/04/01 06:54:51;;;;;;;8.15;5.78;;;;;;;8.53;100.00;99376.69;5007925;28;20116;-81
2023/04/01 06:57:30;;;;;;;7.50;5.35;;;;;;;8.55;100.00;99379.22;5011895;28;20079;-81
2023/04/01 06:59:59;;;;;;;7.45;4.72;;;;;;;8.55;100.00;99380.03;5010784;28;20144;-81
2023/04/01 07:02:38;;;;;;;8.02;4.93;;;;;;;8.56;100.00;99384.31;5005201;28;20056;-81
2023/04/01 07:05:05;;;;;;;8.32;5.07;;;;;;;8.57;100.00;99383.41;5007124;28;20366;-81
2023/04/01 07:07:41;;;;;;;7.47;4.93;;;;;;;8.58;100.00;99392.88;5004208;28;20033;-80
2023/04/01 07:10:16;;;;;;;8.30;5.35;;;;;;;8.58;100.00;99403.25;5006235;28;20034;-80
2023/04/01 07:12:51;;;;;;;8.13;5.50;;;;;;;8.58;100.00;99400.66;5007725;28;20536;-81
2023/04/01 07:15:22;;;;;;;8.30;5.47;;;;;;;8.62;100.00;99411.75;5008900;28;20029;-81
2023/04/01 07:17:54;;;;;;;8.75;5.65;;;;;;;8.62;100.00;99412.59;5004621;28;20025;-81
2023/04/01 07:20:26;;;;;;;9.07;5.60;;;;;;;8.64;100.00;99412.50;5004665;28;20026;-81
2023/04/01 07:22:53;;;;;;;;;;;;;;;8.69;100.00;99412.34;5007873;28;20045;-81
2023/04/01 07:25:37;;;;;;;9.82;6.22;;;;;;;8.65;100.00;99422.84;5001057;28;19921;-81
2023/04/01 07:28:11;;;;;;;10.85;5.88;;;;;;;8.66;100.00;99418.50;5007030;28;20095;-81
2023/04/01 07:30:47;;;;;;;10.02;5.78;;;;;;;8.68;100.00;99426.22;5001780;28;20053;-81
2023/04/01 07:33:33;;;;;;;11.70;5.88;;;;;;;8.69;100.00;99433.91;5006309;28;20022;-81
2023/04/01 07:36:07;;;;;;;10.10;5.32;;;;;;;8.68;100.00;99427.06;5005662;28;20083;-81
2023/04/01 07:38:55;;;;;;;10.43;5.57;;;;;;;8.69;100.00;99439.09;5009921;28;20121;-81
2023/04/01 07:41:39;;;;;;;8.18;4.97;;;;;;;8.74;100.00;99442.38;5007717;28;20504;-81
2023/04/01 07:44:13;;;;;;;8.50;4.97;;;;;;;8.74;100.00;99455.34;5008640;28;20043;-81
2023/04/01 07:46:57;;;;;;;10.15;4.70;;;;;;;8.74;100.00;99446.69;5007773;28;20030;-81
2023/04/01 07:49:28;;;;;;;8.95;4.85;;;;;;;8.79;100.00;99460.31;5006465;28;20030;-81
2023/04/01 07:52:05;;;;;;;12.32;5.90;;;;;;;8.79;100.00;99460.31;5001657;28;20037;-81
2023/04/01 07:54:39;;;;;;;8.55;4.93;;;;;;;8.81;100.00;99456.75;5004297;28;20031;-81
2023/04/01 07:57:35;;;;;;;8.10;5.05;;;;;;;8.85;100.00;99467.88;5003907;28;20128;-80
2023/04/01 08:00:13;;;;;;;11.13;5.10;;;;;;;8.94;100.00;99467.47;5005234;28;20029;-78
2023/04/01 08:02:41;;;;;;;11.52;6.03;;;;;;;9.01;100.00;99475.00;4999927;28;20049;-80
2023/04/01 08:05:27;;;;;;;10.32;5.70;;;;;;;9.04;100.00;99467.94;5005786;28;20034;-81
2023/04/01 08:08:06;;;;;;;8.98;5.10;;;;;;;9.07;100.00;99485.13;5006320;28;20029;-80
2023/04/01 08:10:49;;;;;;;9.63;5.20;;;;;;;9.10;100.00;99485.84;5006309;28;20482;-79
2023/04/01 08:13:42;;;;;;;9.48;4.95;;;;;;;9.13;100.00;99481.44;5003329;28;20058;-79
2023/04/01 08:16:13;;;;;;;7.90;4.90;;;;;;;9.19;100.00;99486.38;5004584;28;20038;-80
2023/04/01 08:18:56;;;;;;;8.55;5.15;;;;;;;9.19;100.00;99483.78;5004126;28;20038;-80
2023/04/01 08:21:27;;;;;;;8.40;4.75;;;;;;;9.19;100.00;99483.78;5003070;28;20550;-79
2023/04/01 08:23:56;;;;;;;9.55;5.07;;;;;;;9.21;100.00;99493.19;5002098;28;20504;-81
2023/04/01 08:26:42;;;;;;;9.98;5.50;;;;;;;9.26;100.00;99496.41;5001929;28;20133;-79
2023/04/01 08:29:20;;;;;;;11.68;6.05;;;;;;;9.26;100.00;99504.22;5004969;28;20065;-79
2023/04/01 08:32:01;;;;;;;11.45;6.32;;;;;;;9.22;100.00;99510.41;5005310;28;20026;-79
2023/04/01 08:34:35;;;;;;;13.48;7.30;;;;;;;9.19;100.00;99510.56;5005574;28;20033;-80
2023/04/01 08:37:21;;;;;;;11.75;6.82;;;;;;;9.13;100.00;99516.00;5004664;28;20036;-79
2023/04/01 08:39:54;;;;;;;12.25;7.00;;;;;;;9.11;100.00;99513.50;5004302;28;20038;-79
2023/04/01 08:42:44;;;;;;;13.38;6.85;;;;;;;9.07;100.00;99519.69;5005761;28;20080;-79
2023/04/01 08:45:27;;;;;;;13.38;7.18;;;;;;;9.06;100.00;99523.19;5005000;28;20038;-80
2023/04/01 08:48:18;;;;;;;12.00;6.80;;;;;;;9.02;100.00;99524.22;5003226;28;20033;-80
2023/04/01 08:51:40;;;;;;;12.83;7.13;;;;;;;9.04;100.00;99539.75;5005549;28;20049;-80
2023/04/01 08:54:37;;;;;;;11.23;6.50;;;;;;;9.03;100.00;99535.47;4948238;28;20043;-80
2023/04/01 08:57:35;;;;;;;13.73;7.53;;;;;;;9.05;100.00;99550.06;4947323;28;20070;-80
2023/04/01 09:00:21;;;;;;;14.35;6.53;;;;;;;9.05;100.00;99549.22;5000046;28;20049;-80
2023/04/01 09:03:15;;;;;;;11.05;7.15;;;;;;;9.08;100.00;99551.66;5004908;28;20121;-79
2023/04/01 09:06:11;;;;;;;11.20;6.75;;;;;;;9.10;100.00;99552.44;5005909;28;20025;-80
2023/04/01 09:09:02;;;;;;;13.65;7.38;;;;;;;9.10;100.00;99560.22;5003904;28;20080;-81
2023/04/01 09:11:39;;;;;;;12.35;6.85;;;;;;;9.10;100.00;99579.25;4994538;28;20543;-81
2023/04/01 09:14:29;;;;;;;13.95;7.20;;;;;;;9.04;100.00;99574.31;4967289;28;20050;-80
2023/04/01 09:17:08;;;;;;;12.07;6.82;;;;;;;9.01;100.00;99578.78;4962033;28;20027;-80
2023/04/01 09:19:51;;;;;;;15.02;7.38;;;;;;;9.02;100.00;99581.28;4964535;28;20116;-82
2023/04/01 09:22:42;;;;;;;12.20;7.10;;;;;;;9.02;100.00;99585.66;4962092;28;20041;-80
2023/04/01 09:25:41;;;;;;;12.85;7.15;;;;;;;9.02;100.00;99581.28;4963082;28;20031;-81
2023/04/01 09:28:34;;;;;;;14.65;7.75;;;;;;;9.03;100.00;99595.97;4961998;28;20034;-84
2023/04/01 09:31:20;;;;;;;12.70;6.90;;;;;;;9.03;100.00;99592.53;4964547;28;20385;-82
2023/04/01 09:34:20;;;;;;;11.80;6.88;;;;;;;9.05;100.00;99598.50;4959983;28;20050;-79
2023/04/01 09:36:52;;;;;;;11.52;6.70;;;;;;;9.07;100.00;99596.69;4961593;28;20031;-80
2023/04/01 09:39:19;;;;;;;10.38;6.10;;;;;;;9.07;100.00;99601.88;4961105;28;20031;-81
2023/04/01 09:42:06;;;;;;;10.40;6.47;;;;;;;9.09;100.00;99602.66;4962392;28;20069;-80
2023/04/01 09:44:44;;;;;;;10.90;5.97;;;;;;;9.12;100.00;99612.91;4960350;28;20154;-79
2023/04/01 09:47:28;;;;;;;9.77;6.20;;;;;;;9.16;100.00;99603.25;4959519;28;20026;-79
2023/04/01 09:50:13;;;;;;;12.73;6.82;;;;;;;9.15;100.00;99614.53;4958393;28;20065;-80
2023/04/01 09:52:55;;;;;;;12.15;6.55;;;;;;;9.15;100.00;99617.97;4961452;28;20049;-79
2023/04/01 09:55:20;;;;;;;11.50;6.43;;;;;;;9.19;100.00;99614.38;4962562;28;20042;-81
2023/04/01 09:58:02;;;;;;;11.88;6.72;;;;;;;9.26;100.00;99620.16;4959904;28;20039;-81
2023/04/01 10:01:15;;;;;;;10.35;6.00;;;;;;;9.31;100.00;99622.56;4960717;28;20118;-81
2023/04/01 10:04:02;;;;;;;8.90;5.65;;;;;;;9.35;100.00;99634.53;4958439;28;20129;-81
2023/04/01 10:06:51;;;;;;;9.38;6.25;;;;;;;9.34;100.00;99631.06;4961896;28;20505;-78
2023/04/01 10:09:35;;;;;;;8.85;5.70;;;;;;;9.34;100.00;99638.03;4962045;28;20056;-80
2023/04/01 10:12:19;;;;;;;9.60;5.63;;;;;;;9.34;100.00;99638.03;4963241;28;20050;-80
2023/04/01 10:15:23;;;;;;;10.13;5.75;;;;;;;9.35;100.00;99645.72;5001029;28;20069;-81
2023/04/01 10:18:39;;;;;;;8.77;5.30;;;;;;;9.36;100.00;99646.59;4981146;28;20068;-80
2023/04/01 10:21:42;;;;;;;7.40;4.88;;;;;;;9.39;100.00;99657.69;4987010;28;20041;-79
2023/04/01 10:24:20;;;;;;;6.43;4.80;;;;;;;9.47;100.00;99646.16;4999567;28;20058;-80
2023/04/01 10:27:15;;;;;;;7.30;4.78;;;;;;;9.55;100.00;99646.69;5000102;28;20041;-80
2023/04/01 10:30:09;;;;;;;6.90;5.18;;;;;;;9.63;100.00;99644.63;5001416;28;20030;-80
2023/04/01 10:32:49;;;;;;;7.53;4.93;;;;;;;9.67;100.00;99656.56;4996683;28;20499;-89
2023/04/01 10:35:42;;;;;;;5.90;4.22;;;;;;;9.69;100.00;99659.09;5001734;28;20038;-82
2023/04/01 10:38:27;;;;;;;6.53;5.00;;;;;;;9.69;100.00;99659.09;5002706;28;20061;-82
2023/04/01 10:41:12;;;;;;;6.60;4.45;;;;;;;9.72;100.00;99653.78;5004561;28;20069;-82
2023/04/01 10:44:17;;;;;;;5.82;4.03;;;;;;;9.74;100.00;99671.91;5004012;28;20044;-81
2023/04/01 10:47:11;;;;;;;6.00;4.30;;;;;;;9.70;100.00;99658.19;5003563;28;20080;-81
2023/04/01 10:50:14;;;;;;;5.90;4.15;;;;;;;9.74;100.00;99672.72;4998694;28;20414;-80
2023/04/01 10:53:07;;;;;;;4.97;3.83;;;;;;;9.72;100.00;99666.78;4995846;28;20052;-81
2023/04/01 10:56:01;;;;;;;5.28;3.90;;;;;;;9.68;100.00;99671.22;5001404;28;20076;-81
2023/04/01 10:58:42;;;;;;;5.35;4.32;;;;;;;9.69;100.00;99674.69;5001209;28;20037;-81
2023/04/01 11:01:44;;;;;;;7.32;5.53;;;;;;;9.67;100.00;99673.91;5002543;28;20060;-81
2023/04/01 11:04:48;;;;;;;7.47;5.55;;;;;;;9.61;100.00;99677.59;4998351;28;20464;-82
2023/04/01 11:08:15;;;;;;;6.72;5.40;;;;;;;9.63;100.00;99693.09;5003292;28;20208;-81
2023/04/01 11:11:13;;;;;;;7.65;5.72;;;;;;;9.61;100.00;99688.00;4963378;28;20047;-81
2023/04/01 11:14:06;;;;;;;8.60;5.95;;;;;;;9.60;100.00;99690.63;5013889;28;20107;-81
2023/04/01 11:16:55;;;;;;;6.55;5.40;;;;;;;9.62;100.00;99694.88;5004913;28;20083;-80
2023/04/01 11:19:33;;;;;;;7.75;5.93;;;;;;;9.65;100.00;99689.53;5003746;28;20026;-81
2023/04/01 11:22:10;;;;;;;7.00;5.70;;;;;;;9.66;100.00;99703.38;5004599;28;20116;-81
2023/04/01 11:24:45;;;;;;;6.90;5.22;;;;;;;9.68;100.00;99705.00;5005337;28;20458;-80
2023/04/01 11:27:25;;;;;;;9.05;6.45;;;;;;;9.68;100.00;99701.56;5005495;28;20045;-81
2023/04/01 11:30:12;;;;;;;8.35;6.10;;;;;;;9.70;100.00;99703.19;5002384;28;20041;-80
2023/04/01 11:32:54;;;;;;;7.43;5.95;;;;;;;9.71;100.00;99709.25;5005262;28;20445;-81
2023/04/01 11:35:19;;;;;;;7.50;5.70;;;;;;;9.68;100.00;99711.94;5005328;28;20030;-82
2023/04/01 11:38:06;;;;;;;7.85;6.18;;;;;;;9.73;100.00;99710.03;5005236;28;20078;-81
2023/04/01 11:41:14;;;;;;;8.07;6.40;;;;;;;9.80;100.00;99714.03;5005587;28;20028;-81
2023/04/01 11:43:49;;;;;;;9.35;6.78;;;;;;;9.80;100.00;99716.63;5006556;28;20053;-81
2023/04/01 11:46:27;;;;;;;10.25;7.55;;;;;;;9.90;100.00;99724.91;5008798;28;20190;-81
2023/04/01 11:48:58;;;;;;;10.05;7.15;;;;;;;9.98;100.00;99729.78;5008721;28;20037;-81
2023/04/01 11:52:05;;;;;;;9.35;7.47;;;;;;;10.02;100.00;99726.16;5008237;28;20540;-81
2023/04/01 11:54:46;;;;;;;9.27;7.05;;;;;;;10.03;99.80;99738.25;4965391;28;20596;-81
2023/04/01 11:57:35;;;;;;;9.98;7.40;;;;;;;9.98;100.00;99729.78;4966909;28;20030;-81
2023/04/01 12:00:26;;;;;;;10.88;7.50;;;;;;;10.03;99.90;99735.66;4996856;28;20126;-82
2023/04/01 12:03:29;;;;;;;10.63;7.03;;;;;;;10.07;99.76;99747.63;5005052;28;20372;-81
2023/04/01 12:06:05;;;;;;;10.40;6.63;;;;;;;10.08;99.45;99738.06;5008324;28;20041;-81
2023/04/01 12:08:53;;;;;;;9.40;6.47;;;;;;;10.10;99.20;99757.84;5007936;28;20504;-81
2023/04/01 12:11:43;;;;;;;9.02;6.18;;;;;;;10.09;99.57;99755.34;5008238;28;20117;-81
2023/04/01 12:14:19;;;;;;;8.18;5.78;;;;;;;10.11;99.29;99754.34;5007979;28;20042;-81